Aérodrome :
LOGIN :

S'inscrire | Disclaimer

   EN    FR    IT 

 










Légende :    VFR   VFR Marginal   IFR   IFR Intensif   IFR Très Intensif
Visi : 
Plafond : 
>= 8 km
>= 3000ft
5 à 8 km
1000 à 3000 ft
1500m à 5 km
500 à 1000 ft
800 à 1500m
200 à 500 ft
< 800m
< 200 ft
Symboles :   Orages  Brouillard  Fortes neiges  Fortes précipitations  Vent > 20 kt
SIGMETs :   Divers  Orages  Givrage  Turbulence  Onde Orograph.  Cendres Volcan.







- Altitude de l'aérodrome : 464 ft
- Code IATA : EVX
- Voir les cartes d'approche


LFOE - Evreux

DERNIER METAR :
  • 210400Z AUTO VRB02KT 5000 BR OVC028 05/05 Q1033 TEMPO 0500 FG VV///

METARs EXPIRÉS :
  • 210330Z AUTO VRB02KT 5000 BR OVC029 05/05 Q1033 TEMPO 0500 FG VV///
  • 210300Z AUTO VRB03KT 4500 BR BKN031 04/04 Q1034 TEMPO 0500 FG VV///
  • 210230Z AUTO 32003KT 2800 BR NSC 03/03 Q1034 TEMPO 0500 FG VV///
  • 210200Z AUTO 34004KT 4100 BR FEW035 04/04 Q1034 TEMPO 0500 FG VV///
  • 210130Z AUTO 01002KT 4900 BR BKN036 05/05 Q1034 TEMPO 0500 FG VV///

TAF TAF LFOE
Valide du 21 à 03h jusqu'au 22 à 03h UTC


210200Z 2103/2203 VRB02KT 3000 BR BKN003
PROB30
TEMPO 2103/2107 0500 FG VV///
BECMG 2108/2110 03005KT 9999 NSW SCT020
BECMG 2120/2121 3000 BR BKN003
BECMG 2121/2123 VRB02KT 0500 FG VV///
Pas de NOTAMs connus pour ce terrain.



MET'MAP, la Météo Aéronautique d'un coup d'oeil ! - Copyright ORBIFLY Décembre 2007 - Disclaimer

ORBIFLY MET'MAP TEAM :

Programmation & Développement : Alexandra Zaïnal
Conception & Développement : Baudouin d'Aumeries
Co-Programmation & Développement : Marc-Olivier Méhu
Soutien technique & logistique : Manuel Goepfert

Contact : metmap@orbifly.com




SOURCES & CREDITS :

   NOAA